Thurman, Ohio
Current Conditions -  °F | °C
As of 5:55 PM on Thursday 23 Oct 2014 (Local Time) from K3I2 Reporting Station
Scattered Clouds Scattered Clouds  
Wind Chill: 61°   Ceiling: Unl
Heat Index: 61°   Visibility: 10mi
Dew Point: 41°   Wind: 0mph
Humidity: 48%   Direction: NA
Pressure: 30.13"   Gusts: NA
Location:  38.9°N, 82.45°W
Report Text: K3I2 232155Z AUTO 00000KT 10SM SCT046 16/05 A3013 RMK AO2
Loading
Personal Weather Stations






























Interactive Weather Map New forecast layout! Learn more

10-Day Weather Forecast

Advertisements
Track Severe Weather on mobile